Davant, Louisiana
Current Conditions -  °F | °C
As of 1:55 PM on Tuesday 21 Oct 2014 (Local Time) from KNBG Reporting Station
Few Clouds Few Clouds  
Wind Chill: 78°   Ceiling: Unl
Heat Index: 79°   Visibility: 10mi
Dew Point: 51°   Wind: 7mph
Humidity: 39%   Direction: 60°ENE
Pressure: 30"   Gusts: NA
Location:  29.61°N, 89.85°W
Report Text: KNBG 211855Z 06006KT 10SM FEW250 26/11 A3000 RMK AO2 SLP157 T02560106 $
Loading
Personal Weather Stations






























Interactive Weather Map
Tropical Storm Tracking
New forecast layout! Learn more

10-Day Weather Forecast

Advertisements
Track Severe Weather on mobile